createdAt,value
2022-08-04T00:00:46.600Z,25.63
2022-08-04T00:03:12.909Z,25.58
2022-08-04T00:05:39.199Z,25.52
2022-08-04T00:08:05.501Z,25.39
2022-08-04T00:10:31.790Z,25.35
2022-08-04T00:12:58.112Z,25.41
2022-08-04T00:15:24.443Z,25.41
2022-08-04T00:17:50.752Z,25.42
2022-08-04T00:20:17.184Z,25.26
2022-08-04T00:22:43.500Z,25.23
2022-08-04T00:25:09.830Z,25.19
2022-08-04T00:27:36.338Z,25.17
2022-08-04T00:30:02.824Z,25.11
2022-08-04T00:32:33.864Z,25.12
2022-08-04T00:35:00.994Z,25.05
2022-08-04T00:37:27.294Z,24.74
2022-08-04T00:39:53.604Z,24.93
2022-08-04T00:42:20.771Z,24.97
2022-08-04T00:44:47.090Z,24.98
2022-08-04T00:47:13.485Z,24.86
2022-08-04T00:49:39.786Z,24.84
2022-08-04T00:52:33.046Z,24.82
2022-08-04T00:54:52.367Z,24.78
2022-08-04T00:57:33.433Z,24.76
2022-08-04T01:00:01.035Z,24.69
2022-08-04T01:02:27.336Z,24.66
2022-08-04T01:04:53.625Z,24.59
2022-08-04T01:07:20.179Z,24.63
2022-08-04T01:09:46.638Z,24.61
2022-08-04T01:12:12.929Z,24.61
2022-08-04T01:14:39.219Z,24.58
2022-08-04T01:17:05.520Z,24.55
2022-08-04T01:19:39.169Z,24.55
2022-08-04T01:22:05.507Z,24.49
2022-08-04T01:24:31.803Z,24.34
2022-08-04T01:27:00.860Z,24.35
2022-08-04T01:29:27.464Z,24.37
2022-08-04T01:32:08.660Z,24.35
2022-08-04T01:34:34.952Z,24.33
2022-08-04T01:37:01.301Z,24.29
2022-08-04T01:39:42.886Z,24.25
2022-08-04T01:42:09.910Z,24.19
2022-08-04T01:44:36.266Z,24.16
2022-08-04T01:47:02.589Z,24.17
2022-08-04T01:49:28.982Z,24.12
2022-08-04T01:51:58.490Z,24.10
2022-08-04T01:54:25.903Z,24.07
2022-08-04T01:56:52.221Z,24.00
2022-08-04T01:59:18.526Z,23.81
2022-08-04T02:01:45.140Z,23.84
2022-08-04T02:04:18.777Z,23.84
2022-08-04T02:06:48.515Z,23.91
2022-08-04T02:09:14.824Z,23.83
2022-08-04T02:11:41.153Z,23.83
2022-08-04T02:14:07.463Z,23.81
2022-08-04T02:16:33.782Z,23.66
2022-08-04T02:19:00.088Z,23.67
2022-08-04T02:21:26.574Z,23.60
2022-08-04T02:24:08.208Z,23.59
2022-08-04T02:26:34.814Z,23.64
2022-08-04T02:29:01.109Z,23.61
2022-08-04T02:31:28.906Z,23.38
2022-08-04T02:33:55.374Z,23.42
2022-08-04T02:36:22.275Z,23.32
2022-08-04T02:38:48.816Z,23.50
2022-08-04T02:41:15.120Z,23.56
2022-08-04T02:43:51.619Z,23.60
2022-08-04T02:46:19.433Z,23.57
2022-08-04T02:48:45.744Z,23.62
2022-08-04T02:51:12.040Z,23.64
2022-08-04T02:53:38.400Z,23.65
2022-08-04T02:56:04.711Z,23.61
2022-08-04T02:58:31.069Z,23.61
2022-08-04T03:00:57.408Z,23.61
2022-08-04T03:03:23.744Z,23.58
2022-08-04T03:06:01.190Z,23.60
2022-08-04T03:08:28.135Z,23.59
2022-08-04T03:10:54.453Z,23.54
2022-08-04T03:13:20.782Z,23.61
2022-08-04T03:15:47.091Z,23.50
2022-08-04T03:18:14.243Z,23.51
2022-08-04T03:20:40.566Z,23.60
2022-08-04T03:23:13.596Z,23.57
2022-08-04T03:25:57.100Z,23.61
2022-08-04T03:28:23.954Z,23.61
2022-08-04T03:30:50.273Z,23.62
2022-08-04T03:33:16.614Z,23.64
2022-08-04T03:35:42.922Z,23.55
2022-08-04T03:38:09.249Z,23.54
2022-08-04T03:40:36.304Z,23.57
2022-08-04T03:43:02.618Z,23.59
2022-08-04T03:45:28.916Z,23.60
2022-08-04T03:47:55.238Z,23.65
2022-08-04T03:50:21.526Z,23.64
2022-08-04T03:53:06.530Z,23.67
2022-08-04T03:55:32.824Z,23.69
2022-08-04T03:57:59.120Z,23.68
2022-08-04T04:00:25.427Z,23.70
2022-08-04T04:02:51.797Z,23.69
2022-08-04T04:05:18.150Z,23.72
2022-08-04T04:07:47.462Z,23.77
2022-08-04T04:10:26.747Z,23.74
2022-08-04T04:12:55.284Z,23.64
2022-08-04T04:15:21.590Z,23.72
2022-08-04T04:17:50.362Z,23.77
2022-08-04T04:20:16.684Z,23.77
2022-08-04T04:22:42.989Z,23.76
2022-08-04T04:25:09.317Z,23.85
2022-08-04T04:27:35.631Z,23.93
2022-08-04T04:30:01.970Z,23.99
2022-08-04T04:32:28.960Z,24.05
2022-08-04T04:34:55.267Z,24.11
2022-08-04T04:37:22.347Z,24.15
2022-08-04T04:39:48.946Z,24.32
2022-08-04T04:42:15.235Z,24.36
2022-08-04T04:44:42.058Z,24.50
2022-08-04T04:47:08.372Z,24.62
2022-08-04T04:49:34.701Z,24.74
2022-08-04T04:52:01.273Z,24.80
2022-08-04T04:54:27.600Z,24.92
2022-08-04T04:56:53.888Z,25.07
2022-08-04T04:59:20.203Z,25.27
2022-08-04T05:01:46.935Z,25.36
2022-08-04T05:04:13.271Z,25.49
2022-08-04T05:06:39.569Z,25.48
2022-08-04T05:09:05.892Z,25.75
2022-08-04T05:11:32.201Z,25.86
2022-08-04T05:14:36.570Z,25.90
2022-08-04T05:16:44.816Z,25.95
2022-08-04T05:19:11.116Z,26.03
2022-08-04T05:21:37.406Z,26.12
2022-08-04T05:24:03.724Z,26.19
2022-08-04T05:26:30.103Z,26.24
2022-08-04T05:28:56.415Z,26.27
2022-08-04T05:31:22.708Z,26.46
2022-08-04T05:33:49.004Z,26.48
2022-08-04T05:36:23.559Z,26.60
2022-08-04T05:38:53.897Z,26.70
2022-08-04T05:41:20.231Z,26.73
2022-08-04T05:43:46.548Z,26.64
2022-08-04T05:46:12.868Z,26.88
2022-08-04T05:48:39.151Z,26.72
2022-08-04T05:51:05.443Z,27.05
2022-08-04T05:53:31.732Z,27.13
2022-08-04T05:55:59.092Z,27.11
2022-08-04T05:58:26.195Z,27.11
2022-08-04T06:00:52.674Z,26.93
2022-08-04T06:03:19.084Z,27.31
2022-08-04T06:05:45.464Z,27.36
2022-08-04T06:08:13.488Z,27.36
2022-08-04T06:10:40.294Z,27.31
2022-08-04T06:13:06.585Z,27.38
2022-08-04T06:15:32.996Z,27.36
2022-08-04T06:19:56.368Z,27.45
2022-08-04T06:20:50.024Z,27.59
2022-08-04T06:23:17.308Z,27.61
2022-08-04T06:25:43.601Z,27.83
2022-08-04T06:28:09.915Z,27.90
2022-08-04T06:30:37.129Z,28.12
2022-08-04T06:33:13.476Z,27.89
2022-08-04T06:35:39.770Z,27.77
2022-08-04T06:38:06.056Z,28.14
2022-08-04T06:40:34.043Z,28.21
2022-08-04T06:43:00.777Z,28.25
2022-08-04T06:45:27.077Z,28.52
2022-08-04T06:47:53.412Z,28.51
2022-08-04T06:51:24.862Z,28.46
2022-08-04T06:53:06.048Z,28.37
2022-08-04T06:55:32.364Z,28.86
2022-08-04T06:58:02.872Z,28.90
2022-08-04T07:00:29.839Z,28.94
2022-08-04T07:02:56.136Z,29.17
2022-08-04T07:05:22.455Z,29.03
2022-08-04T07:07:57.697Z,29.14
2022-08-04T07:10:24.958Z,29.52
2022-08-04T07:12:51.374Z,29.68
2022-08-04T07:15:20.246Z,29.48
2022-08-04T07:17:46.549Z,29.85
2022-08-04T07:20:16.566Z,29.82
2022-08-04T07:23:01.837Z,29.92
2022-08-04T07:25:58.744Z,30.09
2022-08-04T07:28:14.381Z,30.30
2022-08-04T07:30:40.670Z,30.06
2022-08-04T07:33:06.949Z,30.40
2022-08-04T07:36:09.295Z,30.53
2022-08-04T07:38:19.484Z,30.52
2022-08-04T07:40:53.926Z,30.46
2022-08-04T07:43:20.227Z,30.52
2022-08-04T07:45:46.526Z,30.87
2022-08-04T07:48:12.921Z,30.64
2022-08-04T07:50:39.238Z,30.65
2022-08-04T07:53:53.369Z,30.79
2022-08-04T07:55:51.993Z,30.89
2022-08-04T07:58:18.333Z,31.21
2022-08-04T08:00:44.615Z,31.14
2022-08-04T08:03:10.953Z,31.32
2022-08-04T08:06:16.594Z,31.16
2022-08-04T08:08:23.616Z,31.20
2022-08-04T08:10:49.926Z,31.56
2022-08-04T08:13:16.253Z,31.50
2022-08-04T08:15:42.542Z,31.88
2022-08-04T08:18:08.864Z,31.82
2022-08-04T08:20:35.163Z,31.72
2022-08-04T08:23:01.461Z,32.27
2022-08-04T08:25:27.759Z,32.17
2022-08-04T08:27:55.915Z,32.23
2022-08-04T08:30:23.842Z,32.26
2022-08-04T08:32:50.150Z,32.49
2022-08-04T08:35:16.451Z,32.68
2022-08-04T08:37:42.730Z,32.47
2022-08-04T08:40:09.027Z,32.39
2022-08-04T08:42:35.310Z,32.66
2022-08-04T08:45:01.610Z,32.87
2022-08-04T08:47:29.343Z,33.18
2022-08-04T08:50:02.462Z,33.00
2022-08-04T08:53:02.318Z,33.14
2022-08-04T08:55:17.219Z,33.23
2022-08-04T08:57:59.748Z,33.27
2022-08-04T09:00:31.998Z,33.49
2022-08-04T09:03:04.658Z,33.64
2022-08-04T09:05:31.700Z,33.69
2022-08-04T09:07:58.331Z,33.95
2022-08-04T09:10:24.640Z,34.04
2022-08-04T09:12:51.638Z,33.99
2022-08-04T09:15:17.962Z,33.82
2022-08-04T09:17:44.266Z,33.92
2022-08-04T09:20:10.579Z,34.20
2022-08-04T09:22:36.807Z,34.24
2022-08-04T09:25:04.729Z,34.19
2022-08-04T09:27:31.070Z,34.10
2022-08-04T09:29:57.366Z,34.57
2022-08-04T09:32:23.603Z,34.68
2022-08-04T09:35:03.564Z,34.99
2022-08-04T09:37:34.799Z,35.05
2022-08-04T09:40:14.763Z,34.44
2022-08-04T09:42:58.267Z,34.59
2022-08-04T09:45:26.572Z,34.57
2022-08-04T09:47:53.182Z,34.78
2022-08-04T09:50:19.732Z,34.75
2022-08-04T09:52:46.348Z,34.79
2022-08-04T09:55:12.896Z,34.65
2022-08-04T09:57:39.190Z,35.21
2022-08-04T10:00:05.470Z,35.41
2022-08-04T10:02:31.794Z,35.20
2022-08-04T10:04:58.182Z,35.17
2022-08-04T10:07:24.661Z,35.30
2022-08-04T10:09:50.989Z,35.37
2022-08-04T10:12:17.851Z,35.31
2022-08-04T10:14:44.153Z,35.70
2022-08-04T10:17:12.977Z,35.60
2022-08-04T10:19:39.224Z,35.65
2022-08-04T10:22:29.282Z,35.47
2022-08-04T10:24:52.655Z,35.86
2022-08-04T10:27:18.910Z,35.86
2022-08-04T10:29:45.269Z,36.05
2022-08-04T10:32:11.496Z,36.13
2022-08-04T10:34:37.800Z,36.22
2022-08-04T10:37:04.884Z,36.45
2022-08-04T10:39:43.519Z,35.90
2022-08-04T10:42:10.621Z,36.14
2022-08-04T10:44:42.564Z,36.50
2022-08-04T10:47:09.024Z,36.61
2022-08-04T10:49:35.422Z,36.19
2022-08-04T10:52:01.740Z,36.56
2022-08-04T10:54:29.885Z,36.41
2022-08-04T10:56:57.019Z,36.42
2022-08-04T10:59:23.303Z,36.55
2022-08-04T11:02:01.650Z,36.52
2022-08-04T11:04:30.472Z,36.52
2022-08-04T11:06:56.809Z,36.20
2022-08-04T11:09:23.066Z,36.27
2022-08-04T11:12:00.507Z,36.07
2022-08-04T11:14:28.459Z,36.10
2022-08-04T11:16:54.745Z,36.12
2022-08-04T11:19:22.656Z,36.19
2022-08-04T11:22:08.947Z,36.41
2022-08-04T11:24:35.175Z,36.44
2022-08-04T11:27:01.418Z,36.67
2022-08-04T11:29:27.697Z,36.34
2022-08-04T11:31:54.144Z,36.58
2022-08-04T11:34:20.808Z,36.64
2022-08-04T11:36:47.144Z,36.94
2022-08-04T11:39:13.548Z,36.81
2022-08-04T11:41:40.042Z,36.63
2022-08-04T11:44:11.884Z,36.82
2022-08-04T11:46:38.940Z,36.64
2022-08-04T11:49:05.171Z,36.69
2022-08-04T11:51:31.406Z,36.71
2022-08-04T11:53:57.628Z,36.50
2022-08-04T11:56:36.807Z,36.45
2022-08-04T11:59:04.507Z,36.39
2022-08-04T12:01:30.754Z,36.49
2022-08-04T12:03:59.735Z,36.86
2022-08-04T12:06:30.721Z,36.55
2022-08-04T12:08:56.988Z,36.74
2022-08-04T12:11:23.291Z,36.62
2022-08-04T12:13:49.617Z,36.60
2022-08-04T12:16:15.918Z,36.82
2022-08-04T12:18:42.310Z,36.85
2022-08-04T12:21:09.766Z,36.73
2022-08-04T12:23:36.818Z,36.70
2022-08-04T12:26:03.060Z,36.98
2022-08-04T12:28:41.379Z,36.62
2022-08-04T12:31:15.585Z,36.85
2022-08-04T12:34:04.547Z,36.62
2022-08-04T12:36:28.218Z,36.98
2022-08-04T12:38:54.494Z,37.09
2022-08-04T12:41:21.284Z,37.16
2022-08-04T12:43:49.618Z,37.00
2022-08-04T12:46:15.955Z,36.85
2022-08-04T12:48:42.193Z,36.94
2022-08-04T12:51:31.120Z,37.17
2022-08-04T12:53:55.103Z,37.40
2022-08-04T12:56:21.354Z,37.47
2022-08-04T12:58:47.627Z,37.32
2022-08-04T13:02:09.235Z,37.35
2022-08-04T13:04:02.095Z,37.52
2022-08-04T13:06:28.416Z,37.44
2022-08-04T13:08:54.653Z,37.68
2022-08-04T13:11:20.907Z,37.75
2022-08-04T13:13:56.704Z,37.69
2022-08-04T13:16:31.623Z,37.69
2022-08-04T13:18:58.066Z,37.75
2022-08-04T13:24:22.759Z,37.16
2022-08-04T13:27:03.517Z,37.35
2022-08-04T13:29:59.695Z,36.96
2022-08-04T13:30:24.153Z,37.35
2022-08-04T13:32:16.622Z,37.17
2022-08-04T13:34:49.446Z,37.27
2022-08-04T13:37:20.791Z,37.21
2022-08-04T13:39:55.414Z,37.15
2022-08-04T13:42:22.570Z,37.19
2022-08-04T13:44:48.978Z,37.12
2022-08-04T13:47:15.337Z,37.16
2022-08-04T13:50:00.839Z,37.26
2022-08-04T13:52:27.992Z,36.89
2022-08-04T13:54:54.288Z,37.24
2022-08-04T13:57:20.997Z,36.93
2022-08-04T13:59:47.402Z,36.85
2022-08-04T14:02:13.630Z,36.85
2022-08-04T14:04:39.863Z,37.05
2022-08-04T14:07:06.096Z,37.07
2022-08-04T14:10:02.533Z,36.99
2022-08-04T14:12:38.186Z,37.06
2022-08-04T14:15:05.504Z,36.94
2022-08-04T14:17:31.863Z,37.09
2022-08-04T14:19:58.579Z,36.82
2022-08-04T14:22:24.924Z,36.82
2022-08-04T14:24:51.254Z,36.81
2022-08-04T14:27:17.566Z,36.88
2022-08-04T14:29:43.798Z,36.89
2022-08-04T14:32:14.191Z,36.95
2022-08-04T14:34:41.352Z,36.74
2022-08-04T14:37:17.605Z,36.95
2022-08-04T14:40:17.919Z,36.65
2022-08-04T14:42:33.618Z,36.89
2022-08-04T14:45:00.988Z,37.02
2022-08-04T14:47:27.287Z,37.22
2022-08-04T14:49:53.523Z,36.92
2022-08-04T14:52:19.757Z,36.98
2022-08-04T14:54:45.986Z,37.02
2022-08-04T14:57:12.224Z,36.96
2022-08-04T14:59:38.475Z,37.09
2022-08-04T15:02:04.753Z,37.20
2022-08-04T15:04:31.579Z,37.09
2022-08-04T15:06:57.986Z,36.86
2022-08-04T15:09:24.348Z,36.84
2022-08-04T15:11:50.642Z,36.93
2022-08-04T15:14:36.449Z,37.04
2022-08-04T15:17:04.026Z,37.00
2022-08-04T15:19:33.559Z,36.76
2022-08-04T15:22:00.034Z,36.61
2022-08-04T15:24:26.275Z,36.50
2022-08-04T15:26:52.510Z,36.70
2022-08-04T15:29:18.744Z,36.76
2022-08-04T15:32:06.266Z,36.69
2022-08-04T15:34:31.255Z,36.80
2022-08-04T15:36:57.945Z,36.77
2022-08-04T15:39:24.394Z,36.83
2022-08-04T15:41:55.143Z,36.93
2022-08-04T15:44:21.980Z,36.90
2022-08-04T15:46:49.307Z,36.55
2022-08-04T15:49:15.637Z,36.53
2022-08-04T15:51:41.884Z,36.43
2022-08-04T15:54:08.740Z,36.49
2022-08-04T15:57:01.132Z,36.41
2022-08-04T15:59:28.158Z,36.17
2022-08-04T16:02:11.507Z,36.15
2022-08-04T16:04:38.350Z,36.20
2022-08-04T16:07:05.212Z,36.08
2022-08-04T16:09:45.102Z,36.19
2022-08-04T16:12:13.762Z,36.05
2022-08-04T16:14:40.224Z,36.13
2022-08-04T16:17:06.466Z,36.10
2022-08-04T16:19:35.911Z,36.09
2022-08-04T16:22:05.341Z,35.92
2022-08-04T16:24:31.684Z,35.87
2022-08-04T16:26:57.971Z,35.89
2022-08-04T16:29:24.222Z,35.90
2022-08-04T16:31:50.476Z,35.96
2022-08-04T16:34:50.283Z,35.91
2022-08-04T16:37:03.041Z,35.90
2022-08-04T16:39:29.409Z,35.88
2022-08-04T16:42:15.584Z,35.93
2022-08-04T16:44:57.439Z,35.86
2022-08-04T16:47:23.777Z,35.85
2022-08-04T16:49:51.886Z,35.82
2022-08-04T16:52:18.450Z,35.75
2022-08-04T16:54:44.680Z,35.63
2022-08-04T16:57:10.988Z,35.59
2022-08-04T16:59:37.219Z,35.58
2022-08-04T17:02:03.516Z,35.46
2022-08-04T17:04:29.807Z,35.48
2022-08-04T17:06:56.090Z,35.46
2022-08-04T17:09:26.813Z,35.34
2022-08-04T17:11:54.883Z,35.39
2022-08-04T17:14:21.111Z,35.39
2022-08-04T17:16:47.438Z,35.37
2022-08-04T17:19:19.871Z,35.37
2022-08-04T17:21:46.911Z,35.30
2022-08-04T17:24:17.812Z,35.27
2022-08-04T17:26:51.618Z,35.32
2022-08-04T17:29:20.254Z,35.22
2022-08-04T17:31:46.713Z,35.11
2022-08-04T17:34:15.727Z,35.03
2022-08-04T17:36:43.784Z,35.08
2022-08-04T17:39:14.737Z,35.00
2022-08-04T17:41:42.941Z,35.06
2022-08-04T17:44:15.650Z,35.00
2022-08-04T17:46:41.979Z,34.96
2022-08-04T17:49:09.754Z,34.84
2022-08-04T17:52:04.247Z,34.83
2022-08-04T17:54:29.778Z,34.72
2022-08-04T17:57:02.877Z,34.69
2022-08-04T17:59:57.192Z,34.63
2022-08-04T18:02:18.512Z,34.58
2022-08-04T18:05:06.285Z,34.54
2022-08-04T18:08:34.923Z,34.45
2022-08-04T18:10:31.021Z,34.43
2022-08-04T18:13:02.234Z,34.33
2022-08-04T18:15:40.560Z,34.26
2022-08-04T18:18:21.925Z,34.19
2022-08-04T18:20:50.230Z,34.21
2022-08-04T18:23:17.000Z,34.09
2022-08-04T18:25:51.522Z,34.09
2022-08-04T18:28:26.529Z,34.04
2022-08-04T18:30:55.221Z,34.01
2022-08-04T18:33:37.615Z,33.95
2022-08-04T18:36:32.978Z,33.90
2022-08-04T18:38:55.791Z,33.86
2022-08-04T18:41:24.717Z,33.74
2022-08-04T18:43:55.796Z,33.76
2022-08-04T18:46:23.000Z,33.59
2022-08-04T18:48:53.346Z,33.54
2022-08-04T18:51:24.243Z,33.51
2022-08-04T18:53:58.604Z,33.48
2022-08-04T18:56:29.650Z,33.38
2022-08-04T18:58:59.966Z,33.30
2022-08-04T19:01:30.069Z,33.22
2022-08-04T19:04:33.786Z,33.17
2022-08-04T19:06:59.113Z,33.17
2022-08-04T19:09:52.359Z,33.10
2022-08-04T19:12:27.146Z,33.09
2022-08-04T19:14:58.224Z,33.06
2022-08-04T19:17:53.583Z,33.00
2022-08-04T19:20:15.747Z,32.93
2022-08-04T19:24:27.717Z,32.84
2022-08-04T19:25:58.953Z,32.84
2022-08-04T19:28:23.921Z,32.82
2022-08-04T19:30:54.780Z,32.76
2022-08-04T19:33:24.965Z,32.67
2022-08-04T19:35:51.706Z,32.61
2022-08-04T19:38:18.891Z,32.55
2022-08-04T19:40:52.686Z,32.51
2022-08-04T19:43:20.702Z,32.46
2022-08-04T19:45:49.261Z,32.41
2022-08-04T19:48:19.584Z,32.37
2022-08-04T19:50:46.230Z,32.29
2022-08-04T19:53:18.766Z,32.23
2022-08-04T19:55:49.826Z,32.13
2022-08-04T19:58:16.533Z,32.11
2022-08-04T20:00:50.895Z,31.99
2022-08-04T20:03:20.208Z,31.95
2022-08-04T20:05:54.455Z,31.88
2022-08-04T20:08:23.637Z,31.72
2022-08-04T20:10:51.658Z,31.47
2022-08-04T20:13:18.439Z,31.50
2022-08-04T20:15:55.536Z,31.60
2022-08-04T20:18:35.720Z,31.53
2022-08-04T20:21:03.409Z,31.50
2022-08-04T20:23:47.861Z,31.32
2022-08-04T20:26:16.195Z,31.38
2022-08-04T20:28:42.502Z,31.32
2022-08-04T20:31:12.294Z,31.27
2022-08-04T20:33:49.377Z,31.29
2022-08-04T20:36:21.267Z,31.27
2022-08-04T20:38:51.908Z,31.21
2022-08-04T20:41:19.187Z,31.24
2022-08-04T20:43:49.573Z,31.23
2022-08-04T20:46:18.054Z,31.17
2022-08-04T20:48:51.909Z,31.11
2022-08-04T20:51:19.926Z,30.98
2022-08-04T20:53:57.761Z,30.91
2022-08-04T20:56:31.038Z,30.88
2022-08-04T20:58:57.915Z,30.84
2022-08-04T21:01:27.121Z,30.84
2022-08-04T21:04:15.230Z,30.85
2022-08-04T21:06:54.837Z,30.77
2022-08-04T21:09:37.599Z,30.75
2022-08-04T21:12:07.920Z,30.76
2022-08-04T21:14:34.204Z,30.63
2022-08-04T21:17:03.815Z,30.50
2022-08-04T21:19:31.528Z,30.46
2022-08-04T21:21:57.948Z,30.35
2022-08-04T21:24:26.188Z,30.28
2022-08-04T21:26:56.366Z,30.25
2022-08-04T21:29:23.246Z,30.31
2022-08-04T21:31:50.922Z,30.21
2022-08-04T21:34:39.260Z,30.18
2022-08-04T21:37:05.920Z,30.05
2022-08-04T21:39:32.709Z,29.96
2022-08-04T21:42:29.800Z,29.97
2022-08-04T21:44:45.407Z,29.85
2022-08-04T21:47:23.418Z,29.81
2022-08-04T21:52:36.349Z,29.43
2022-08-04T21:55:02.780Z,29.39
2022-08-04T21:57:29.956Z,29.39
2022-08-04T21:59:58.560Z,29.39
2022-08-04T22:02:26.275Z,29.25
2022-08-04T22:04:52.988Z,29.22
2022-08-04T22:07:19.219Z,28.90
2022-08-04T22:10:00.295Z,28.63
2022-08-04T22:12:30.112Z,28.72
2022-08-04T22:14:59.312Z,28.39
2022-08-04T22:17:26.247Z,28.30
2022-08-04T22:20:02.010Z,28.20
2022-08-04T22:22:29.604Z,28.41
2022-08-04T22:24:58.401Z,28.17
2022-08-04T22:27:43.832Z,28.01
2022-08-04T22:30:17.805Z,28.03
2022-08-04T22:32:44.369Z,28.25
2022-08-04T22:35:36.266Z,28.13
2022-08-04T22:38:05.716Z,28.19
2022-08-04T22:40:34.248Z,28.30
2022-08-04T22:43:02.924Z,28.14
2022-08-04T22:45:44.576Z,28.11
2022-08-04T22:48:11.347Z,27.93
2022-08-04T22:50:37.628Z,28.04
2022-08-04T22:53:03.921Z,27.91
2022-08-04T22:56:07.692Z,28.07
2022-08-04T22:58:17.618Z,28.18
2022-08-04T23:00:52.028Z,28.23
2022-08-04T23:03:36.939Z,28.24
2022-08-04T23:06:04.611Z,28.26
2022-08-04T23:08:31.070Z,28.26
2022-08-04T23:11:03.571Z,28.29
2022-08-04T23:13:31.718Z,28.30
2022-08-04T23:15:58.113Z,28.29
2022-08-04T23:18:24.423Z,28.28
2022-08-04T23:20:53.142Z,28.25
2022-08-04T23:23:20.134Z,28.26
2022-08-04T23:26:07.109Z,28.23
2022-08-04T23:28:32.715Z,28.20
2022-08-04T23:30:59.010Z,28.17
2022-08-04T23:33:50.652Z,28.17
2022-08-04T23:36:11.845Z,28.10
2022-08-04T23:38:38.282Z,28.06
2022-08-04T23:41:05.624Z,28.04
2022-08-04T23:43:38.731Z,28.03
2022-08-04T23:46:19.457Z,28.01
2022-08-04T23:48:47.245Z,27.96
2022-08-04T23:51:15.700Z,27.94
2022-08-04T23:54:03.166Z,27.92
2022-08-04T23:56:32.357Z,27.88
2022-08-04T23:58:58.663Z,27.84
